Time;durP1;ratioP1;P1;durP2;ratioP2;P2;SDS_P1;SDS_P2;PMS_P1;PMS_P2;Temp;Humidity;BMP_temperature;BMP_pressure;BME280_temperature;BME280_humidity;BME280_pressure;Samples;Min_cycle;Max_cycle;Signal;HPM_P1;HPM_P2
2023/12/10 00:01:47;;;;;;;24.17;5.10;;;;;;;8.73;100.00;99707.31;5033829;28;20073;-68
2023/12/10 00:04:14;;;;;;;27.05;4.70;;;;;;;8.72;100.00;99706.47;5032952;28;20045;-68
2023/12/10 00:06:42;;;;;;;29.90;5.43;;;;;;;8.75;100.00;99713.34;5031927;28;20060;-69
2023/12/10 00:09:09;;;;;;;27.27;4.82;;;;;;;8.74;100.00;99723.03;5032689;28;20038;-69
2023/12/10 00:11:36;;;;;;;29.27;5.03;;;;;;;8.74;100.00;99709.03;5033684;28;20041;-69
2023/12/10 00:14:03;;;;;;;30.08;5.65;;;;;;;8.74;100.00;99711.66;5034347;28;20124;-70
2023/12/10 00:16:30;;;;;;;25.20;4.75;;;;;;;8.75;100.00;99718.63;5035040;28;20501;-71
2023/12/10 00:18:57;;;;;;;27.02;5.70;;;;;;;8.74;100.00;99707.25;5032367;28;20069;-70
2023/12/10 00:21:25;;;;;;;26.10;4.95;;;;;;;8.74;100.00;99706.38;5030713;28;20053;-71
2023/12/10 00:23:52;;;;;;;24.50;5.18;;;;;;;8.75;100.00;99703.69;5033114;28;20045;-70
2023/12/10 00:26:19;;;;;;;27.83;5.65;;;;;;;8.78;100.00;99714.09;5033322;28;20140;-71
2023/12/10 00:28:46;;;;;;;26.88;4.55;;;;;;;8.78;100.00;99716.72;5033518;28;20128;-71
2023/12/10 00:31:13;;;;;;;34.08;5.38;;;;;;;8.77;100.00;99715.00;5012609;28;20045;-71
2023/12/10 00:33:40;;;;;;;24.63;4.97;;;;;;;8.80;100.00;99720.13;5012465;28;20406;-71
2023/12/10 00:36:08;;;;;;;26.48;5.25;;;;;;;8.82;100.00;99720.94;5045469;28;20110;-71
2023/12/10 00:38:38;;;;;;;28.20;5.10;;;;;;;8.88;100.00;99738.22;5011819;28;20033;-71
2023/12/10 00:41:05;;;;;;;25.33;4.68;;;;;;;8.88;100.00;99711.94;5020759;28;20065;-71
2023/12/10 00:43:32;;;;;;;32.25;5.45;;;;;;;8.91;100.00;99727.56;5027551;28;20046;-72
2023/12/10 00:45:59;;;;;;;27.95;5.40;;;;;;;8.92;100.00;99720.56;5029509;28;20049;-71
2023/12/10 00:48:26;;;;;;;28.88;5.13;;;;;;;8.95;100.00;99726.53;5029016;28;20046;-71
2023/12/10 00:50:53;;;;;;;23.20;4.20;;;;;;;8.98;98.85;99742.19;5039794;28;20096;-71
2023/12/10 00:53:20;;;;;;;29.15;5.28;;;;;;;9.02;98.92;99740.28;5026090;28;20464;-71
2023/12/10 00:55:47;;;;;;;29.50;4.95;;;;;;;9.01;98.32;99755.19;5011242;28;20052;-71
2023/12/10 00:58:14;;;;;;;26.95;5.07;;;;;;;9.03;99.37;99752.53;5022059;28;20071;-72
2023/12/10 01:00:41;;;;;;;22.75;4.82;;;;;;;9.02;98.71;99764.78;5030573;28;20037;-72
2023/12/10 01:03:10;;;;;;;23.98;4.18;;;;;;;9.05;97.08;99789.25;5029389;28;20041;-71
2023/12/10 01:05:37;;;;;;;25.67;4.38;;;;;;;9.05;97.08;99769.09;5039765;28;20052;-71
2023/12/10 01:08:04;;;;;;;20.38;4.63;;;;;;;9.06;96.64;99775.19;5038987;28;20095;-71
2023/12/10 01:10:31;;;;;;;20.20;4.35;;;;;;;9.04;96.77;99769.13;5051091;28;20504;-71
2023/12/10 01:12:58;;;;;;;22.13;4.15;;;;;;;9.03;97.45;99786.69;5033823;28;20045;-71
2023/12/10 01:15:31;;;;;;;19.85;4.47;;;;;;;9.01;97.99;99780.63;5032777;28;20126;-72
2023/12/10 01:18:00;;;;;;;26.42;4.85;;;;;;;8.96;98.57;99785.22;5065208;28;20107;-71
2023/12/10 01:20:33;;;;;;;19.10;4.20;;;;;;;8.91;99.28;99782.75;5049827;28;20582;-71
2023/12/10 01:23:03;;;;;;;28.02;5.00;;;;;;;8.85;99.79;99791.75;5043130;28;20037;-71
2023/12/10 01:25:30;;;;;;;26.20;4.75;;;;;;;8.81;99.97;99786.69;5029776;28;20091;-71
2023/12/10 01:27:57;;;;;;;24.55;4.65;;;;;;;8.75;100.00;99786.94;5029965;28;20069;-71
2023/12/10 01:30:24;;;;;;;17.33;3.97;;;;;;;8.70;100.00;99790.59;5029328;28;20068;-71
2023/12/10 01:32:58;;;;;;;21.08;4.68;;;;;;;8.68;100.00;99786.31;5029860;28;20049;-71
2023/12/10 01:35:26;;;;;;;;;;;;;;;8.68;99.76;99783.69;5028483;28;20045;-71
2023/12/10 01:37:54;;;;;;;21.90;3.80;;;;;;;8.63;100.00;99768.09;5028418;28;19932;-71
2023/12/10 01:40:21;;;;;;;26.05;4.40;;;;;;;8.62;100.00;99786.56;5026880;28;20049;-71
2023/12/10 01:42:49;;;;;;;19.50;4.47;;;;;;;8.60;100.00;99791.03;5026924;28;20049;-71
2023/12/10 01:45:18;;;;;;;21.92;4.40;;;;;;;8.59;100.00;99795.44;5026102;28;20045;-70
2023/12/10 01:47:51;;;;;;;23.05;4.32;;;;;;;8.59;100.00;99784.94;5028072;28;20115;-70
2023/12/10 01:50:20;;;;;;;22.17;4.40;;;;;;;8.58;100.00;99785.84;5018588;28;20144;-70
2023/12/10 01:52:49;;;;;;;26.20;4.50;;;;;;;8.58;100.00;99798.09;5026497;28;20147;-70
2023/12/10 01:55:17;;;;;;;20.58;3.78;;;;;;;8.57;100.00;99801.63;5026744;28;20221;-70
2023/12/10 01:57:45;;;;;;;24.40;4.30;;;;;;;8.57;99.99;99805.13;5025662;28;20143;-70
2023/12/10 02:00:13;;;;;;;22.65;3.75;;;;;;;8.59;99.81;99819.06;5026896;28;20045;-71
2023/12/10 02:02:42;;;;;;;25.45;4.60;;;;;;;8.59;100.00;99816.44;5027107;28;20855;-71
2023/12/10 02:05:10;;;;;;;22.73;4.50;;;;;;;8.58;100.00;99806.84;5030705;28;20076;-71
2023/12/10 02:07:37;;;;;;;23.25;4.43;;;;;;;8.54;100.00;99819.25;5024075;28;20045;-71
2023/12/10 02:10:06;;;;;;;23.52;4.35;;;;;;;8.52;100.00;99817.56;5042804;28;20128;-72
2023/12/10 02:12:34;;;;;;;19.75;4.07;;;;;;;8.50;100.00;99835.16;5040495;28;20077;-72
2023/12/10 02:15:22;;;;;;;24.52;4.00;;;;;;;8.43;100.00;99825.78;5009927;28;20038;-73
2023/12/10 02:17:49;;;;;;;26.83;4.47;;;;;;;8.39;100.00;99828.50;5014210;28;20071;-72
2023/12/10 02:20:17;;;;;;;24.02;4.70;;;;;;;8.36;100.00;99828.66;5028022;28;20136;-72
2023/12/10 02:23:14;;;;;;;24.17;4.30;;;;;;;8.34;100.00;99834.88;5026877;28;20088;-73
2023/12/10 02:25:41;;;;;;;20.17;3.60;;;;;;;8.29;100.00;99831.56;5027818;28;20071;-73
2023/12/10 02:28:09;;;;;;;18.60;3.45;;;;;;;8.28;100.00;99820.19;5028757;28;20064;-73
2023/12/10 02:30:37;;;;;;;19.27;4.30;;;;;;;8.24;100.00;99845.69;5029005;28;20099;-73
2023/12/10 02:33:04;;;;;;;19.13;4.03;;;;;;;8.27;100.00;99833.38;5028683;28;20045;-73
2023/12/10 02:35:31;;;;;;;19.02;3.65;;;;;;;8.27;100.00;99826.38;5028132;28;20072;-73
2023/12/10 02:37:58;;;;;;;19.05;3.67;;;;;;;8.24;100.00;99839.59;5018328;28;20069;-73
2023/12/10 02:40:25;;;;;;;20.33;3.78;;;;;;;8.24;100.00;99840.44;5019829;28;20537;-73
2023/12/10 02:42:52;;;;;;;18.50;3.90;;;;;;;8.24;100.00;99850.09;5051240;28;20072;-73
2023/12/10 02:45:19;;;;;;;15.85;3.38;;;;;;;8.24;100.00;99844.84;5020580;28;20046;-73
2023/12/10 02:47:47;;;;;;;16.80;3.63;;;;;;;8.22;100.00;99852.78;5022819;28;20038;-74
2023/12/10 02:50:14;;;;;;;22.67;3.72;;;;;;;8.23;100.00;99851.00;5026755;28;20041;-73
2023/12/10 02:52:42;;;;;;;23.13;3.90;;;;;;;8.21;100.00;99855.44;5042507;28;20068;-74
2023/12/10 02:55:09;;;;;;;18.02;3.28;;;;;;;8.18;100.00;99848.56;5028752;28;20433;-73
2023/12/10 02:57:37;;;;;;;18.77;3.83;;;;;;;8.19;100.00;99865.19;5027679;28;20052;-73
2023/12/10 03:00:08;;;;;;;17.48;3.58;;;;;;;8.18;100.00;99860.84;5026892;28;20069;-74
2023/12/10 03:02:35;;;;;;;18.60;3.40;;;;;;;8.17;100.00;99864.38;5027153;28;20061;-73
2023/12/10 03:05:03;;;;;;;19.38;3.70;;;;;;;8.15;99.92;99859.16;5049591;28;20596;-73
2023/12/10 03:07:30;;;;;;;22.58;3.92;;;;;;;8.13;100.00;99850.50;5031872;28;20085;-73
2023/12/10 03:09:57;;;;;;;20.45;3.58;;;;;;;8.12;100.00;99867.16;5028443;28;20044;-73
2023/12/10 03:12:24;;;;;;;21.77;4.05;;;;;;;8.10;100.00;99855.84;5025737;28;20047;-74
2023/12/10 03:14:51;;;;;;;16.23;3.55;;;;;;;8.06;100.00;99862.97;5028172;28;20168;-73
2023/12/10 03:17:18;;;;;;;19.38;3.08;;;;;;;8.07;100.00;99866.44;5042545;28;20049;-74
2023/12/10 03:19:45;;;;;;;20.33;3.63;;;;;;;8.05;100.00;99865.66;5026286;28;20057;-74
2023/12/10 03:22:13;;;;;;;21.25;3.67;;;;;;;8.03;100.00;99870.97;5040681;28;20531;-73
2023/12/10 03:24:40;;;;;;;21.20;4.03;;;;;;;8.02;100.00;99882.38;5028213;28;20136;-72
2023/12/10 03:27:07;;;;;;;18.85;3.53;;;;;;;8.02;100.00;99874.50;5027703;28;20042;-71
2023/12/10 03:29:34;;;;;;;19.42;4.03;;;;;;;8.00;100.00;99875.47;5027823;28;20072;-72
2023/12/10 03:32:01;;;;;;;21.77;4.03;;;;;;;7.97;100.00;99868.56;5027100;28;20049;-72
2023/12/10 03:34:28;;;;;;;22.17;3.47;;;;;;;7.99;100.00;99884.25;5019375;28;20046;-72
2023/12/10 03:36:55;;;;;;;18.35;3.22;;;;;;;7.99;100.00;99866.72;5021632;28;20619;-73
2023/12/10 03:39:22;;;;;;;21.52;3.70;;;;;;;8.03;100.00;99881.47;5039649;28;20125;-72
2023/12/10 03:41:49;;;;;;;18.63;3.72;;;;;;;8.05;100.00;99879.63;5036298;28;20428;-72
2023/12/10 03:44:17;;;;;;;17.60;3.25;;;;;;;8.04;100.00;99887.56;5036655;28;20520;-71
2023/12/10 03:46:44;;;;;;;18.25;3.13;;;;;;;8.06;100.00;99885.72;5026963;28;20037;-71
2023/12/10 03:49:11;;;;;;;17.88;3.38;;;;;;;8.06;100.00;99886.59;5013647;28;20045;-72
2023/12/10 03:51:38;;;;;;;19.92;3.58;;;;;;;8.09;100.00;99889.09;5008914;28;20056;-71
2023/12/10 03:54:05;;;;;;;18.50;3.58;;;;;;;8.11;99.63;99904.81;5025766;28;20213;-72
2023/12/10 03:56:32;;;;;;;18.77;3.70;;;;;;;8.10;99.85;99895.22;5026369;28;20226;-71
2023/12/10 03:58:59;;;;;;;20.50;3.55;;;;;;;8.08;100.00;99891.78;5043319;28;20073;-72
2023/12/10 04:01:27;;;;;;;19.40;3.60;;;;;;;8.07;99.89;99896.19;5027299;28;20284;-73
2023/12/10 04:03:54;;;;;;;17.42;3.03;;;;;;;8.06;100.00;99897.09;5027050;28;20520;-73
2023/12/10 04:06:21;;;;;;;16.20;3.10;;;;;;;8.08;100.00;99891.78;5039873;28;20088;-73
2023/12/10 04:08:48;;;;;;;19.48;3.58;;;;;;;8.09;99.95;99894.34;5022952;28;20041;-73
2023/12/10 04:11:25;;;;;;;19.85;3.95;;;;;;;8.12;99.06;99893.41;5027127;28;20050;-73
2023/12/10 04:13:52;;;;;;;20.08;3.65;;;;;;;8.11;98.68;99904.81;5030701;28;20045;-73
2023/12/10 04:16:28;;;;;;;20.05;3.72;;;;;;;8.12;98.62;99903.91;5045557;28;20092;-72
2023/12/10 04:18:56;;;;;;;20.85;3.60;;;;;;;8.12;98.43;99906.53;5026919;28;20069;-73
2023/12/10 04:21:23;;;;;;;20.92;4.22;;;;;;;8.13;98.04;99895.13;5029162;28;20529;-72
2023/12/10 04:23:50;;;;;;;17.73;3.25;;;;;;;8.16;98.43;99915.16;5028739;28;20045;-72
2023/12/10 04:26:18;;;;;;;17.67;3.92;;;;;;;8.17;97.93;99912.47;5028829;28;20046;-72
2023/12/10 04:28:45;;;;;;;25.17;3.95;;;;;;;8.19;97.61;99930.81;5030223;28;20145;-72
2023/12/10 04:31:13;;;;;;;20.48;3.72;;;;;;;8.22;97.26;99928.06;5027587;28;20509;-72
2023/12/10 04:33:43;;;;;;;19.45;3.80;;;;;;;8.23;97.15;99921.91;5027430;28;20124;-72
2023/12/10 04:36:14;;;;;;;19.17;4.10;;;;;;;8.27;96.39;99923.53;5043395;28;20128;-72
2023/12/10 04:38:41;;;;;;;16.20;3.50;;;;;;;8.30;95.72;99922.56;5027411;28;20050;-72
2023/12/10 04:41:08;;;;;;;23.92;4.38;;;;;;;8.34;95.11;99935.50;5029724;28;20042;-72
2023/12/10 04:43:36;;;;;;;21.65;3.47;;;;;;;8.37;94.68;99939.78;5027318;28;20053;-72
2023/12/10 04:46:03;;;;;;;21.92;3.45;;;;;;;8.37;95.34;99943.28;5028108;28;20049;-73
2023/12/10 04:48:30;;;;;;;21.88;3.83;;;;;;;8.35;95.82;99937.22;5029895;28;20144;-71
2023/12/10 04:50:59;;;;;;;17.08;3.72;;;;;;;8.35;95.28;99941.59;5028213;28;20430;-72
2023/12/10 04:53:26;;;;;;;20.02;4.05;;;;;;;8.34;94.89;99961.78;5021476;28;20107;-72
2023/12/10 04:55:53;;;;;;;16.20;3.50;;;;;;;8.37;93.91;99950.28;5030138;28;20124;-72
2023/12/10 04:58:20;;;;;;;16.20;3.58;;;;;;;8.36;94.96;99957.34;5029135;28;20049;-71
2023/12/10 05:00:47;;;;;;;17.60;3.80;;;;;;;8.34;95.79;99967.03;5029410;28;20128;-71
2023/12/10 05:03:14;;;;;;;19.38;3.83;;;;;;;8.32;95.24;99963.59;5028484;28;20038;-71
2023/12/10 05:05:42;;;;;;;16.83;3.33;;;;;;;8.32;96.18;99962.75;5042130;28;20041;-70
2023/12/10 05:08:09;;;;;;;18.90;3.45;;;;;;;8.32;94.98;99968.84;5030964;28;20049;-72
2023/12/10 05:10:36;;;;;;;16.13;3.80;;;;;;;8.33;95.65;99972.34;5011483;28;20045;-71
2023/12/10 05:13:03;;;;;;;18.52;3.80;;;;;;;8.33;94.91;99951.34;5018396;28;20047;-71
2023/12/10 05:15:30;;;;;;;18.25;3.53;;;;;;;8.37;93.32;99990.56;5029508;28;20060;-71
2023/12/10 05:18:03;;;;;;;17.27;3.20;;;;;;;8.43;93.64;99976.38;5028324;28;20143;-72
2023/12/10 05:20:30;;;;;;;21.88;3.67;;;;;;;8.47;92.42;99978.00;5028714;28;20065;-71
2023/12/10 05:23:00;;;;;;;19.77;3.63;;;;;;;8.50;92.46;99983.13;5027966;28;20049;-72
2023/12/10 05:25:27;;;;;;;17.45;3.35;;;;;;;8.52;92.71;99986.56;5028396;28;20677;-72
2023/12/10 05:27:55;;;;;;;19.42;3.40;;;;;;;8.54;92.66;100002.28;5027280;28;20044;-72
2023/12/10 05:30:23;;;;;;;20.27;3.83;;;;;;;8.59;90.72;100005.63;5027602;28;20050;-72
2023/12/10 05:32:50;;;;;;;17.35;3.10;;;;;;;8.61;91.05;99997.66;5036125;28;20046;-72
2023/12/10 05:35:17;;;;;;;18.65;3.33;;;;;;;8.65;89.68;100015.91;5026539;28;20033;-70
2023/12/10 05:37:44;;;;;;;16.65;3.25;;;;;;;8.66;90.55;100017.63;5030749;28;20068;-72
2023/12/10 05:40:11;;;;;;;17.38;3.33;;;;;;;8.68;89.52;100017.53;5027932;28;20041;-72
2023/12/10 05:42:39;;;;;;;19.13;3.78;;;;;;;8.68;88.98;100010.53;5027962;28;20045;-72
2023/12/10 05:45:08;;;;;;;18.60;3.40;;;;;;;8.69;89.88;100025.41;5026543;28;20107;-72
2023/12/10 05:47:35;;;;;;;20.10;3.53;;;;;;;8.70;90.41;100032.34;5026812;28;20046;-73
2023/12/10 05:50:03;;;;;;;19.63;3.38;;;;;;;8.72;90.05;100068.22;5026077;28;20033;-71
2023/12/10 05:52:30;;;;;;;20.83;3.78;;;;;;;8.73;89.34;100033.16;5026487;28;20592;-72
2023/12/10 05:54:58;;;;;;;19.98;3.45;;;;;;;8.74;89.48;100046.25;5023056;28;20103;-72
2023/12/10 05:57:25;;;;;;;17.88;3.40;;;;;;;8.74;90.15;100030.47;5044075;28;20049;-71
2023/12/10 05:59:52;;;;;;;16.13;3.10;;;;;;;8.76;89.29;100048.81;5016908;28;20037;-71
2023/12/10 06:02:22;;;;;;;26.77;4.60;;;;;;;8.77;89.35;100045.28;5008193;28;20037;-71
2023/12/10 06:04:49;;;;;;;17.65;3.15;;;;;;;8.77;88.17;100056.63;5030996;28;20124;-71
2023/12/10 06:07:17;;;;;;;14.30;3.05;;;;;;;8.79;87.53;100052.19;5040604;28;20041;-71
2023/12/10 06:09:44;;;;;;;19.38;3.47;;;;;;;8.80;87.29;100074.09;5026044;28;20029;-71
2023/12/10 06:12:11;;;;;;;19.55;3.92;;;;;;;8.85;86.64;100073.00;5027973;28;20448;-72
2023/12/10 06:14:38;;;;;;;15.15;3.55;;;;;;;8.85;87.28;100074.78;5026338;28;20076;-72
2023/12/10 06:17:05;;;;;;;18.42;3.40;;;;;;;8.85;86.94;100083.50;5026601;28;20429;-72
2023/12/10 06:19:32;;;;;;;15.90;2.78;;;;;;;8.86;88.13;100098.34;5025729;28;20037;-72
2023/12/10 06:21:59;;;;;;;22.42;4.40;;;;;;;8.90;86.52;100108.78;5029204;28;20041;-71
2023/12/10 06:24:27;;;;;;;18.25;2.85;;;;;;;8.89;86.85;100138.59;5025288;28;20103;-71
2023/12/10 06:26:54;;;;;;;17.77;3.28;;;;;;;8.90;86.84;100124.56;5028104;28;20034;-70
2023/12/10 06:29:22;;;;;;;22.50;4.10;;;;;;;8.90;86.75;100114.91;5023577;28;20041;-71
2023/12/10 06:31:49;;;;;;;18.30;3.40;;;;;;;8.93;86.07;100134.97;5026940;28;20564;-70
2023/12/10 06:34:16;;;;;;;16.27;3.40;;;;;;;8.94;85.82;100137.53;5027646;28;20456;-70
2023/12/10 06:36:43;;;;;;;20.02;4.00;;;;;;;8.91;86.30;100127.13;5019877;28;20434;-70
2023/12/10 06:39:11;;;;;;;19.23;3.40;;;;;;;8.93;85.80;100137.59;5026332;28;20143;-70
2023/12/10 06:41:38;;;;;;;19.80;3.67;;;;;;;8.94;85.84;100136.69;5025529;28;20049;-70
2023/12/10 06:44:09;;;;;;;18.90;3.75;;;;;;;8.92;86.38;100164.78;5027451;28;20535;-70
2023/12/10 06:46:37;;;;;;;23.67;3.85;;;;;;;8.92;86.49;100155.13;5035150;28;20049;-70
2023/12/10 06:49:04;;;;;;;15.25;3.00;;;;;;;8.94;85.15;100157.72;5010475;28;20045;-70
2023/12/10 06:51:31;;;;;;;20.05;3.40;;;;;;;8.92;85.96;100159.53;5027785;28;20037;-70
2023/12/10 06:53:59;;;;;;;18.13;3.40;;;;;;;8.93;85.91;100143.69;5026245;28;20107;-70
2023/12/10 06:56:26;;;;;;;18.05;3.40;;;;;;;8.96;84.67;100176.91;5025393;28;20049;-70
2023/12/10 06:58:52;;;;;;;18.85;3.58;;;;;;;8.95;85.82;100183.94;5026016;28;20690;-70
2023/12/10 07:01:19;;;;;;;18.80;3.33;;;;;;;8.95;86.08;100207.59;5041946;28;20139;-71
2023/12/10 07:03:46;;;;;;;20.05;3.38;;;;;;;8.96;84.72;100200.56;5024341;28;20041;-71
2023/12/10 07:06:14;;;;;;;19.08;3.63;;;;;;;8.95;85.07;100197.09;5025024;28;20037;-71
2023/12/10 07:08:41;;;;;;;18.42;3.53;;;;;;;8.93;86.25;100201.53;5026628;28;20049;-71
2023/12/10 07:11:10;;;;;;;23.08;3.28;;;;;;;8.92;85.97;100193.72;5026163;28;20034;-70
2023/12/10 07:13:37;;;;;;;20.83;3.72;;;;;;;8.89;86.20;100197.31;5022878;28;20465;-70
2023/12/10 07:16:05;;;;;;;22.25;3.65;;;;;;;8.93;85.71;100206.78;5021680;28;20067;-70
2023/12/10 07:18:33;;;;;;;17.50;3.25;;;;;;;8.95;86.42;100222.53;5025655;28;20139;-69
2023/12/10 07:21:00;;;;;;;18.83;3.33;;;;;;;8.95;87.03;100220.75;5023931;28;20136;-73
2023/12/10 07:23:27;;;;;;;15.57;3.25;;;;;;;8.99;86.67;100224.13;5028160;28;20116;-68
2023/12/10 07:25:54;;;;;;;14.68;2.85;;;;;;;9.03;84.53;100241.53;5025156;28;20049;-68
2023/12/10 07:28:21;;;;;;;19.60;3.55;;;;;;;9.03;85.76;100244.16;5026114;28;20493;-68
2023/12/10 07:30:48;;;;;;;15.77;3.17;;;;;;;9.06;85.80;100251.94;5037710;28;20594;-73
2023/12/10 07:33:15;;;;;;;13.88;3.00;;;;;;;9.11;84.01;100247.38;5023787;28;20571;-71
2023/12/10 07:35:43;;;;;;;18.65;3.78;;;;;;;9.12;85.00;100262.25;5025687;28;20099;-71
2023/12/10 07:38:10;;;;;;;23.23;3.47;;;;;;;9.11;84.69;100257.91;5026704;28;20587;-71
2023/12/10 07:40:37;;;;;;;16.38;3.13;;;;;;;9.10;84.68;100265.84;5025472;28;20043;-71
2023/12/10 07:43:05;;;;;;;20.90;3.90;;;;;;;9.08;83.76;100273.78;5027628;28;20053;-71
2023/12/10 07:45:33;;;;;;;16.90;3.00;;;;;;;9.05;84.09;100278.28;5027401;28;20073;-71
2023/12/10 07:48:00;;;;;;;17.63;3.50;;;;;;;9.02;85.18;100285.34;5030073;28;20664;-71
2023/12/10 07:50:27;;;;;;;17.13;3.13;;;;;;;9.05;84.36;100294.94;5031663;28;20048;-72
2023/12/10 07:52:54;;;;;;;14.40;2.80;;;;;;;9.07;83.75;100281.72;5025283;28;20042;-72
2023/12/10 07:55:21;;;;;;;12.95;3.08;;;;;;;9.06;84.47;100299.25;5029366;28;20163;-72
2023/12/10 07:57:48;;;;;;;13.55;3.40;;;;;;;9.07;84.39;100289.63;5028642;28;20041;-72
2023/12/10 08:00:16;;;;;;;14.48;3.22;;;;;;;9.08;84.56;100315.84;5030176;28;20032;-72
2023/12/10 08:02:43;;;;;;;17.27;3.53;;;;;;;9.10;83.77;100331.59;5030106;28;20056;-72
2023/12/10 08:05:10;;;;;;;21.98;3.30;;;;;;;9.09;84.00;100330.72;5029483;28;20047;-71
2023/12/10 08:07:37;;;;;;;17.13;3.15;;;;;;;9.06;84.35;100341.34;5027928;28;20117;-71
2023/12/10 08:10:05;;;;;;;16.35;3.30;;;;;;;9.04;84.22;100351.06;5028310;28;20156;-71
2023/12/10 08:12:32;;;;;;;19.35;3.42;;;;;;;9.04;83.83;100344.94;5008698;28;20043;-71
2023/12/10 08:15:00;;;;;;;16.20;3.40;;;;;;;9.01;83.80;100382.69;5025833;28;20038;-71
2023/12/10 08:17:28;;;;;;;18.67;3.70;;;;;;;9.01;83.62;100349.38;5024048;28;20042;-71
2023/12/10 08:19:55;;;;;;;19.05;3.15;;;;;;;9.00;84.31;100362.56;5026460;28;20815;-71
2023/12/10 08:22:22;;;;;;;16.80;2.90;;;;;;;9.02;83.58;100369.50;5024103;28;20048;-71
2023/12/10 08:24:49;;;;;;;20.27;3.42;;;;;;;9.02;84.12;100355.50;5027288;28;20049;-71
2023/12/10 08:27:16;;;;;;;16.15;3.10;;;;;;;8.99;83.96;100366.97;5026700;28;20046;-71
2023/12/10 08:29:43;;;;;;;16.45;2.97;;;;;;;9.03;84.42;100373.00;5043364;28;20038;-71
2023/12/10 08:32:11;;;;;;;13.15;3.13;;;;;;;9.06;84.53;100372.03;5029437;28;20040;-71
2023/12/10 08:34:38;;;;;;;13.55;2.92;;;;;;;9.08;84.11;100378.13;5029389;28;20049;-71
2023/12/10 08:37:07;;;;;;;19.88;3.55;;;;;;;9.06;84.56;100378.13;5028383;28;20123;-71
2023/12/10 08:39:34;;;;;;;19.05;3.15;;;;;;;9.08;83.50;100389.47;5036202;28;20054;-70
2023/12/10 08:42:01;;;;;;;24.98;3.38;;;;;;;9.06;84.45;100398.34;5028421;28;20132;-71
2023/12/10 08:44:28;;;;;;;14.25;2.92;;;;;;;9.08;84.66;100399.16;5031046;28;20136;-71
2023/12/10 08:46:55;;;;;;;20.48;3.30;;;;;;;9.09;84.15;100399.09;5030693;28;20037;-71
2023/12/10 08:49:22;;;;;;;18.40;3.90;;;;;;;9.07;84.54;100416.69;5029687;28;20073;-71
2023/12/10 08:51:49;;;;;;;21.15;3.28;;;;;;;9.06;85.44;100408.84;5043507;28;20069;-71
2023/12/10 08:54:16;;;;;;;17.67;3.80;;;;;;;9.06;84.68;100425.47;5029355;28;20107;-71
2023/12/10 08:56:43;;;;;;;18.17;3.40;;;;;;;9.06;85.59;100427.25;5028639;28;20049;-71
2023/12/10 08:59:10;;;;;;;17.15;3.10;;;;;;;9.08;84.97;100434.19;5029647;28;20064;-71
2023/12/10 09:01:37;;;;;;;19.15;3.38;;;;;;;9.08;85.02;100435.97;5045933;28;20437;-71
2023/12/10 09:04:05;;;;;;;17.13;3.65;;;;;;;9.09;85.35;100445.59;5029918;28;20041;-71
2023/12/10 09:06:32;;;;;;;22.23;3.50;;;;;;;9.08;85.84;100463.09;5031121;28;21117;-70
2023/12/10 09:09:00;;;;;;;17.70;3.75;;;;;;;9.09;85.02;100437.69;5023778;28;20040;-71
2023/12/10 09:11:27;;;;;;;16.48;3.20;;;;;;;9.11;84.88;100435.84;5011211;28;20045;-71
2023/12/10 09:13:54;;;;;;;19.30;3.75;;;;;;;9.11;85.02;100439.34;5028112;28;20045;-71
2023/12/10 09:16:21;;;;;;;18.42;3.42;;;;;;;9.16;86.10;100457.63;5030829;28;20095;-71
2023/12/10 09:18:49;;;;;;;20.23;3.35;;;;;;;9.18;85.82;100461.06;5029944;28;20702;-72
2023/12/10 09:21:16;;;;;;;23.70;3.67;;;;;;;9.18;85.83;100453.19;5029446;28;20053;-72
2023/12/10 09:23:43;;;;;;;17.15;3.72;;;;;;;9.21;85.37;100458.31;5027778;28;20136;-71
2023/12/10 09:26:10;;;;;;;15.40;3.60;;;;;;;9.20;86.15;100477.69;5028965;28;20068;-71
2023/12/10 09:28:37;;;;;;;20.35;3.72;;;;;;;9.21;87.37;100474.09;5028823;28;20045;-71
2023/12/10 09:31:04;;;;;;;17.92;3.08;;;;;;;9.21;85.93;100482.00;5027908;28;20041;-71
2023/12/10 09:33:31;;;;;;;17.98;3.20;;;;;;;9.24;86.55;100487.19;5028821;28;20048;-71
2023/12/10 09:35:59;;;;;;;17.67;2.95;;;;;;;9.26;86.99;100493.25;5036260;28;20731;-71
2023/12/10 09:38:26;;;;;;;20.55;3.72;;;;;;;9.30;86.13;100481.75;5034465;28;20038;-70
2023/12/10 09:40:54;;;;;;;17.42;3.42;;;;;;;9.30;86.59;100481.75;5038588;28;20037;-70
2023/12/10 09:43:21;;;;;;;21.60;3.40;;;;;;;9.36;86.24;100479.81;5034516;28;20049;-71
2023/12/10 09:45:48;;;;;;;22.67;4.15;;;;;;;9.39;86.12;100487.63;5031434;28;20266;-70
2023/12/10 09:48:17;;;;;;;17.85;4.20;;;;;;;9.43;86.30;100497.13;5028827;28;20049;-71
2023/12/10 09:50:45;;;;;;;16.10;3.53;;;;;;;9.46;86.13;100505.78;5030279;28;20512;-71
2023/12/10 09:53:13;;;;;;;23.00;4.20;;;;;;;9.45;86.40;100501.47;5030844;28;20050;-72
2023/12/10 09:55:41;;;;;;;16.98;3.20;;;;;;;9.45;87.13;100493.56;5024406;28;20038;-71
2023/12/10 09:58:08;;;;;;;17.73;4.00;;;;;;;9.45;86.92;100492.69;5026522;28;20046;-73
2023/12/10 10:00:35;;;;;;;17.90;3.10;;;;;;;9.47;87.32;100488.25;5028482;28;20041;-71
2023/12/10 10:03:03;;;;;;;24.27;4.20;;;;;;;9.52;87.16;100482.84;5028287;28;20820;-71
2023/12/10 10:05:33;;;;;;;14.38;3.53;;;;;;;9.57;87.29;100494.06;5032397;28;20053;-70
2023/12/10 10:08:00;;;;;;;27.30;3.78;;;;;;;9.58;87.30;100494.03;5029594;28;20132;-71
2023/12/10 10:10:27;;;;;;;19.70;3.72;;;;;;;9.58;87.78;100488.78;5028739;28;20045;-70
2023/12/10 10:12:55;;;;;;;21.92;3.45;;;;;;;9.58;87.83;100495.78;5027381;28;20045;-71
2023/12/10 10:15:30;;;;;;;19.23;3.70;;;;;;;9.57;87.38;100494.94;5028826;28;20053;-70
2023/12/10 10:17:58;;;;;;;22.08;3.63;;;;;;;9.56;88.12;100495.00;5027449;28;20394;-71
2023/12/10 10:20:26;;;;;;;20.60;3.47;;;;;;;9.57;88.38;100494.94;5028419;28;20136;-70
2023/12/10 10:22:56;;;;;;;28.33;3.53;;;;;;;9.56;88.54;100505.53;5026789;28;20075;-70
2023/12/10 10:25:24;;;;;;;25.52;3.95;;;;;;;9.57;89.07;100510.72;5028798;28;20475;-71
2023/12/10 10:27:52;;;;;;;20.90;4.03;;;;;;;9.60;89.01;100507.13;5026963;28;20573;-70
2023/12/10 10:30:19;;;;;;;27.25;4.43;;;;;;;9.61;89.32;100498.34;5028349;28;20127;-71
2023/12/10 10:32:48;;;;;;;21.52;3.78;;;;;;;9.64;89.11;100503.50;5029022;28;20037;-70
2023/12/10 10:35:15;;;;;;;18.13;3.72;;;;;;;9.63;89.12;100497.38;5027305;28;20083;-70
2023/12/10 10:37:43;;;;;;;26.40;4.78;;;;;;;9.62;89.98;100498.28;5028321;28;20055;-71
2023/12/10 10:40:10;;;;;;;20.45;3.72;;;;;;;9.64;89.82;100498.25;5028698;28;20594;-70
2023/12/10 10:42:38;;;;;;;20.05;3.92;;;;;;;9.67;89.71;100490.22;5027233;28;20041;-70
2023/12/10 10:45:06;;;;;;;20.83;3.60;;;;;;;9.68;90.01;100491.09;5028374;28;20049;-71
2023/12/10 10:47:35;;;;;;;18.25;3.75;;;;;;;9.70;90.60;100492.78;5023190;28;20137;-70
2023/12/10 10:50:04;;;;;;;20.73;3.70;;;;;;;9.76;90.89;100500.50;5017406;28;20048;-71
2023/12/10 10:52:54;;;;;;;16.38;3.30;;;;;;;9.86;90.50;100495.78;5030308;28;20081;-71
2023/12/10 10:55:22;;;;;;;21.90;4.32;;;;;;;9.98;90.35;100491.00;5025408;28;20080;-71
2023/12/10 10:57:49;;;;;;;21.98;4.05;;;;;;;10.05;90.16;100493.41;5026712;28;20046;-71
2023/12/10 11:00:16;;;;;;;18.52;3.30;;;;;;;10.09;89.51;100489.72;5028172;28;20064;-71
2023/12/10 11:02:46;;;;;;;21.27;3.22;;;;;;;10.09;88.67;100489.72;5027458;28;20060;-71
2023/12/10 11:05:14;;;;;;;24.38;4.30;;;;;;;10.15;89.29;100487.81;5036063;28;20040;-71
2023/12/10 11:07:41;;;;;;;20.60;3.50;;;;;;;10.25;88.66;100483.94;5042606;28;20467;-71
2023/12/10 11:10:09;;;;;;;18.52;4.10;;;;;;;10.25;89.02;100500.59;5027884;28;20089;-71
2023/12/10 11:12:39;;;;;;;16.63;3.20;;;;;;;10.28;88.28;100494.34;5027010;28;20138;-72
2023/12/10 11:15:26;;;;;;;23.38;3.33;;;;;;;10.28;87.74;100491.72;5027885;28;20045;-72
2023/12/10 11:17:59;;;;;;;15.98;3.65;;;;;;;10.23;87.70;100483.13;5028217;28;20050;-72
2023/12/10 11:20:46;;;;;;;16.73;3.13;;;;;;;10.27;87.96;100484.75;5025513;28;20180;-72
2023/12/10 11:23:17;;;;;;;18.48;3.58;;;;;;;10.34;88.09;100472.22;5027845;28;20041;-72
2023/12/10 11:25:44;;;;;;;12.57;2.85;;;;;;;10.40;87.88;100464.97;5027775;28;20525;-72
2023/12/10 11:28:15;;;;;;;19.90;3.55;;;;;;;10.50;86.87;100465.53;5025627;28;20118;-71
2023/12/10 11:30:44;;;;;;;17.63;3.13;;;;;;;10.64;86.60;100477.34;5027539;28;20058;-71